Etusivu
METAR-TAF:

METAR-TAF

Lentoasemat :

Presque_Isle_County_Airport

Rogers City, Michigan, Yhdysvallat

Leveyspiiri: 45-24-25N, Pituuspiiri: 083-48-46W, korkeus merenpinnasta: 204 m

Tämänhetkinen sää

Tämä raportti tehtiin 14 minuuttia sitten, kello 01.38 UTC
Tuuli 7 kn etelästä/kaakosta
Lämpötila 5°C
Kosteus 87%
Ilmanpaine 1017 hPa
Näkyvyys: 16.1 km
selkeää

METAR: KPZQ 190138Z AUTO 15007KT 10SM CLR 05/03 A3002 RMK AO2 T00450025

Aika: 21:52 (01:52 UTC)


TAF: puuttuu

Säähavainnot ja -ennusteet yli 4000 lentoasemalta (METAR- ja TAF-raportit).

Käytössä olevat sääasemat on merkitty karttaan keltaisilla ja punaisilla pisteillä.

Aseta hiiri pisteen päälle nähdäksesi sääaseman nimen.

Klikkaa sitten nähdäksesi säähavainnot ja -ennusteet.

Kartan vaihtaminen: klikkaa mustalla rastilla varustettuja vihreitä pisteitä, niin voit zoomata sisään; viivalla varustettua vihreää pistettä, niin voit zoomata ulos tai vihreitä nuolia, niin pääset viereisille kartoille.


METAR-TAF: